Sainte-Claire, Canada
Current Conditions -  °F | °C
As of 5:00 AM on Thursday 27 Nov 2014 (Local Time) from CYQB Reporting Station
Overcast Overcast  
Wind Chill: 19°   Ceiling: 9400
Heat Index: 27°   Visibility: 15mi
Dew Point: 14°   Wind: 7mph
Humidity: 59%   Direction: 360°N
Pressure: 29.96"   Gusts: NA
Location:  46.6°N, 70.85°W
Report Text: CYQB 271000Z 36006KT 15SM FEW033 OVC094 M03/M10 A2996 RMK SC2AC6 SLP150
Loading
Personal Weather Stations






























Interactive Weather Map New forecast layout! Learn more

10-Day Weather Forecast

Advertisements
Track Severe Weather on mobile